Time;durP1;ratioP1;P1;durP2;ratioP2;P2;SDS_P1;SDS_P2;PMS_P1;PMS_P2;Temp;Humidity;BMP_temperature;BMP_pressure;BME280_temperature;BME280_humidity;BME280_pressure;Samples;Min_cycle;Max_cycle;Signal;HPM_P1;HPM_P2
2023/11/30 00:00:49;;;;;;;;;;;18.00;48.10;;;;;;1541654;76;681;-59
2023/11/30 00:02:51;;;;;;;;;;;17.90;48.10;;;;;;1555758;75;1151;-59
2023/11/30 00:04:53;;;;;;;;;;;17.90;48.10;;;;;;1552668;75;655;-60
2023/11/30 00:06:54;;;;;;;;;;;17.90;48.10;;;;;;1534869;76;1539;-60
2023/11/30 00:08:57;;;;;;;;;;;17.90;48.10;;;;;;1560890;75;720;-59
2023/11/30 00:10:59;;;;;;;;;;;17.90;48.10;;;;;;1533229;76;745;-60
2023/11/30 00:13:01;;;;;;;;;;;17.90;48.10;;;;;;1530550;76;1144;-59
2023/11/30 00:15:04;;;;;;;;;;;18.00;48.10;;;;;;1556183;75;708;-60
2023/11/30 00:17:06;;;;;;;;;;;17.90;48.10;;;;;;1536467;76;767;-60
2023/11/30 00:19:08;;;;;;;;;;;17.90;48.10;;;;;;1549774;75;1943;-61
2023/11/30 00:21:10;;;;;;;;;;;17.90;48.10;;;;;;1554250;75;1547;-61
2023/11/30 00:23:12;;;;;;;;;;;17.90;48.10;;;;;;1535365;76;1163;-59
2023/11/30 00:25:14;;;;;;;;;;;17.90;48.10;;;;;;1557663;75;766;-61
2023/11/30 00:27:16;;;;;;;;;;;17.90;48.10;;;;;;1554907;75;726;-60
2023/11/30 00:29:17;;;;;;;;;;;17.90;48.10;;;;;;1555819;75;731;-61
2023/11/30 00:31:19;;;;;;;;;;;17.90;48.10;;;;;;1538989;76;793;-60
2023/11/30 00:33:21;;;;;;;;;;;17.90;48.10;;;;;;1550006;75;1143;-60
2023/11/30 00:35:23;;;;;;;;;;;17.90;48.10;;;;;;1554656;75;1571;-60
2023/11/30 00:37:25;;;;;;;;;;;17.90;48.10;;;;;;1542705;76;782;-60
2023/11/30 00:39:27;;;;;;;;;;;17.90;48.10;;;;;;1553713;75;1923;-60
2023/11/30 00:41:29;;;;;;;;;;;17.90;48.10;;;;;;1555477;75;797;-60
2023/11/30 00:43:31;;;;;;;;;;;17.90;48.10;;;;;;1528377;76;1125;-60
2023/11/30 00:45:33;;;;;;;;;;;17.90;48.10;;;;;;1556432;75;780;-58
2023/11/30 00:47:34;;;;;;;;;;;17.90;48.10;;;;;;1559891;75;689;-60
2023/11/30 00:49:36;;;;;;;;;;;17.90;48.10;;;;;;1545536;76;1506;-62
2023/11/30 00:51:38;;;;;;;;;;;17.90;48.10;;;;;;1557060;75;657;-60
2023/11/30 00:53:40;;;;;;;;;;;17.90;48.10;;;;;;1544465;75;1175;-58
2023/11/30 00:55:42;;;;;;;;;;;17.90;48.10;;;;;;1547848;75;823;-61
2023/11/30 00:57:44;;;;;;;;;;;17.90;48.20;;;;;;1558326;75;737;-61
2023/11/30 00:59:46;;;;;;;;;;;17.90;48.20;;;;;;1543593;76;778;-62
2023/11/30 01:01:48;;;;;;;;;;;17.90;48.10;;;;;;1548504;75;737;-60
2023/11/30 01:03:49;;;;;;;;;;;17.90;48.10;;;;;;1546450;75;1586;-60
2023/11/30 01:05:51;;;;;;;;;;;17.90;48.20;;;;;;1552718;75;711;-61
2023/11/30 01:07:53;;;;;;;;;;;17.90;48.10;;;;;;1537283;76;759;-62
2023/11/30 01:09:55;;;;;;;;;;;17.90;48.10;;;;;;1555857;75;715;-63
2023/11/30 01:11:57;;;;;;;;;;;17.90;48.10;;;;;;1551452;75;701;-62
2023/11/30 01:13:59;;;;;;;;;;;17.90;48.10;;;;;;1555085;75;1118;-63
2023/11/30 01:16:01;;;;;;;;;;;17.90;48.20;;;;;;1552207;75;701;-62
2023/11/30 01:18:05;;;;;;;;;;;18.30;48.30;;;;;;1540097;76;1943;-63
2023/11/30 01:20:08;;;;;;;;;;;17.90;48.10;;;;;;1557946;75;883;-62
2023/11/30 01:22:10;;;;;;;;;;;17.90;48.10;;;;;;1554316;74;1107;-63
2023/11/30 01:24:12;;;;;;;;;;;17.90;48.10;;;;;;1558132;75;800;-62
2023/11/30 01:26:14;;;;;;;;;;;17.80;47.90;;;;;;1558167;75;760;-62
2023/11/30 01:28:16;;;;;;;;;;;17.90;48.10;;;;;;1555871;75;667;-63
2023/11/30 01:30:18;;;;;;;;;;;17.90;48.10;;;;;;1556093;75;687;-63
2023/11/30 01:32:20;;;;;;;;;;;17.80;48.10;;;;;;1540371;75;1520;-63
2023/11/30 01:34:22;;;;;;;;;;;17.90;48.20;;;;;;1563625;75;838;-64
2023/11/30 01:36:24;;;;;;;;;;;17.90;48.10;;;;;;1553512;75;747;-62
2023/11/30 01:38:26;;;;;;;;;;;17.90;48.20;;;;;;1558483;75;1913;-60
2023/11/30 01:40:28;;;;;;;;;;;17.90;48.20;;;;;;1538945;76;807;-61
2023/11/30 01:42:30;;;;;;;;;;;17.90;48.10;;;;;;1553737;74;1146;-60
2023/11/30 01:44:32;;;;;;;;;;;17.80;48.10;;;;;;1548165;75;658;-60
2023/11/30 01:46:34;;;;;;;;;;;17.80;48.10;;;;;;1531471;76;1382;-61
2023/11/30 01:48:35;;;;;;;;;;;17.90;48.20;;;;;;1555244;75;753;-61
2023/11/30 01:50:37;;;;;;;;;;;17.80;48.10;;;;;;1556490;75;784;-61
2023/11/30 01:52:39;;;;;;;;;;;17.90;48.20;;;;;;1552593;75;1204;-61
2023/11/30 01:54:41;;;;;;;;;;;17.90;48.20;;;;;;1537724;76;723;-61
2023/11/30 01:56:43;;;;;;;;;;;17.80;48.00;;;;;;1553798;75;737;-60
2023/11/30 01:58:45;;;;;;;;;;;17.90;48.20;;;;;;1555107;75;1931;-61
2023/11/30 02:00:47;;;;;;;;;;;17.80;48.10;;;;;;1565678;75;1609;-61
2023/11/30 02:02:49;;;;;;;;;;;17.80;48.00;;;;;;1542218;76;1113;-61
2023/11/30 02:04:52;;;;;;;;;;;17.80;48.10;;;;;;1534889;76;737;-61
2023/11/30 02:06:54;;;;;;;;;;;17.80;48.10;;;;;;1558975;75;828;-60
2023/11/30 02:08:56;;;;;;;;;;;17.90;48.10;;;;;;1560392;75;753;-62
2023/11/30 02:10:58;;;;;;;;;;;17.80;48.10;;;;;;1551472;75;794;-63
2023/11/30 02:13:00;;;;;;;;;;;17.80;48.10;;;;;;1549640;75;1133;-62
2023/11/30 02:15:03;;;;;;;;;;;17.80;48.10;;;;;;1532615;76;1366;-61
2023/11/30 02:17:05;;;;;;;;;;;17.90;48.20;;;;;;1558649;75;731;-62
2023/11/30 02:19:06;;;;;;;;;;;17.80;48.10;;;;;;1560975;75;1897;-60
2023/11/30 02:21:08;;;;;;;;;;;17.80;48.10;;;;;;1558087;75;744;-61
2023/11/30 02:23:10;;;;;;;;;;;17.80;48.10;;;;;;1537863;75;1150;-61
2023/11/30 02:25:12;;;;;;;;;;;17.80;48.10;;;;;;1549264;75;1061;-61
2023/11/30 02:27:14;;;;;;;;;;;17.80;48.10;;;;;;1563612;75;845;-62
2023/11/30 02:29:16;;;;;;;;;;;17.80;48.10;;;;;;1567599;75;1617;-61
2023/11/30 02:31:18;;;;;;;;;;;17.80;48.10;;;;;;1531446;76;752;-62
2023/11/30 02:33:20;;;;;;;;;;;17.90;48.30;;;;;;1552518;75;1121;-62
2023/11/30 02:35:24;;;;;;;;;;;17.80;48.10;;;;;;1565731;75;740;-61
2023/11/30 02:37:26;;;;;;;;;;;17.80;48.10;;;;;;1566922;75;716;-61
2023/11/30 02:39:28;;;;;;;;;;;17.80;48.20;;;;;;1544111;76;1938;-61
2023/11/30 02:41:30;;;;;;;;;;;17.80;48.10;;;;;;1548931;75;789;-62
2023/11/30 02:43:31;;;;;;;;;;;17.80;48.10;;;;;;1556458;75;1585;-61
2023/11/30 02:45:33;;;;;;;;;;;17.80;48.10;;;;;;1553122;75;716;-60
2023/11/30 02:47:35;;;;;;;;;;;17.80;48.20;;;;;;1544369;76;825;-61
2023/11/30 02:49:37;;;;;;;;;;;17.80;48.20;;;;;;1551044;75;700;-60
2023/11/30 02:51:39;;;;;;;;;;;17.80;48.20;;;;;;1544380;76;705;-61
2023/11/30 02:53:41;;;;;;;;;;;17.80;48.20;;;;;;1554427;74;1182;-61
2023/11/30 02:55:43;;;;;;;;;;;17.80;48.10;;;;;;1541169;76;1458;-62
2023/11/30 02:57:44;;;;;;;;;;;17.90;48.30;;;;;;1559634;75;691;-61
2023/11/30 02:59:46;;;;;;;;;;;17.80;48.20;;;;;;1550490;75;1919;-61
2023/11/30 03:01:48;;;;;;;;;;;17.80;48.10;;;;;;1552546;75;730;-62
2023/11/30 03:03:50;;;;;;;;;;;17.80;48.20;;;;;;1554565;74;1119;-62
2023/11/30 03:05:52;;;;;;;;;;;17.80;48.20;;;;;;1551430;75;667;-62
2023/11/30 03:07:54;;;;;;;;;;;17.70;48.20;;;;;;1532028;76;720;-62
2023/11/30 03:09:56;;;;;;;;;;;17.80;48.20;;;;;;1552739;75;1453;-61
2023/11/30 03:11:58;;;;;;;;;;;17.80;48.20;;;;;;1555825;75;794;-61
2023/11/30 03:14:00;;;;;;;;;;;17.80;48.20;;;;;;1553756;75;1227;-62
2023/11/30 03:16:02;;;;;;;;;;;17.90;48.30;;;;;;1535181;76;676;-61
2023/11/30 03:18:03;;;;;;;;;;;17.80;48.10;;;;;;1560127;75;646;-61
2023/11/30 03:20:06;;;;;;;;;;;17.80;48.10;;;;;;1539499;76;1932;-62
2023/11/30 03:22:08;;;;;;;;;;;17.80;48.20;;;;;;1554429;75;697;-61
2023/11/30 03:24:10;;;;;;;;;;;17.80;48.10;;;;;;1562153;75;1486;-61
2023/11/30 03:26:11;;;;;;;;;;;17.80;48.20;;;;;;1562929;75;758;-61
2023/11/30 03:28:13;;;;;;;;;;;17.80;48.10;;;;;;1532587;76;669;-61
2023/11/30 03:30:15;;;;;;;;;;;17.80;48.20;;;;;;1551815;75;767;-62
2023/11/30 03:32:17;;;;;;;;;;;17.80;48.10;;;;;;1554753;74;1146;-61
2023/11/30 03:34:19;;;;;;;;;;;17.80;48.10;;;;;;1558650;75;682;-61
2023/11/30 03:36:21;;;;;;;;;;;17.80;48.10;;;;;;1548009;75;842;-61
2023/11/30 03:38:23;;;;;;;;;;;17.90;48.30;;;;;;1563301;75;1254;-61
2023/11/30 03:40:25;;;;;;;;;;;17.80;48.20;;;;;;1530884;76;1940;-60
2023/11/30 03:42:26;;;;;;;;;;;17.90;48.30;;;;;;1550595;75;1130;-62
2023/11/30 03:44:28;;;;;;;;;;;17.80;48.10;;;;;;1549849;75;812;-61
2023/11/30 03:46:30;;;;;;;;;;;17.90;48.20;;;;;;1562941;75;740;-62
2023/11/30 03:48:32;;;;;;;;;;;17.80;48.10;;;;;;1551356;75;803;-61
2023/11/30 03:50:34;;;;;;;;;;;17.80;48.10;;;;;;1563175;75;800;-61
2023/11/30 03:52:36;;;;;;;;;;;17.90;48.30;;;;;;1560486;74;1487;-62
2023/11/30 03:54:38;;;;;;;;;;;17.80;48.10;;;;;;1551251;75;792;-62
2023/11/30 03:56:40;;;;;;;;;;;17.80;48.10;;;;;;1552489;75;671;-61
2023/11/30 03:58:42;;;;;;;;;;;17.90;48.20;;;;;;1561414;75;699;-61
2023/11/30 04:00:44;;;;;;;;;;;17.90;48.20;;;;;;1558200;75;1927;-62
2023/11/30 04:02:45;;;;;;;;;;;17.90;48.20;;;;;;1555063;74;1145;-61
2023/11/30 04:04:47;;;;;;;;;;;17.80;48.10;;;;;;1531823;76;798;-61
2023/11/30 04:06:50;;;;;;;;;;;17.90;48.20;;;;;;1560493;75;1573;-62
2023/11/30 04:08:52;;;;;;;;;;;17.90;48.20;;;;;;1551000;75;785;-62
2023/11/30 04:10:54;;;;;;;;;;;17.90;48.20;;;;;;1556993;75;727;-62
2023/11/30 04:12:56;;;;;;;;;;;17.90;48.20;;;;;;1536807;75;1148;-62
2023/11/30 04:14:58;;;;;;;;;;;17.80;48.10;;;;;;1556525;75;665;-61
2023/11/30 04:17:00;;;;;;;;;;;17.80;48.10;;;;;;1550720;75;713;-62
2023/11/30 04:19:02;;;;;;;;;;;17.90;48.10;;;;;;1561013;75;1934;-61
2023/11/30 04:21:05;;;;;;;;;;;17.90;48.20;;;;;;1552005;75;1454;-62
2023/11/30 04:23:08;;;;;;;;;;;17.80;48.00;;;;;;1535142;76;1121;-61
2023/11/30 04:25:10;;;;;;;;;;;17.90;48.20;;;;;;1556307;75;789;-61
2023/11/30 04:27:12;;;;;;;;;;;17.80;48.00;;;;;;1541792;76;717;-61
2023/11/30 04:29:14;;;;;;;;;;;17.80;48.10;;;;;;1555469;75;693;-61
2023/11/30 04:31:16;;;;;;;;;;;17.80;48.00;;;;;;1556929;75;729;-61
2023/11/30 04:33:18;;;;;;;;;;;17.80;48.10;;;;;;1560821;74;1139;-61
2023/11/30 04:35:19;;;;;;;;;;;17.90;48.20;;;;;;1550955;75;1549;-61
2023/11/30 04:37:21;;;;;;;;;;;17.90;48.20;;;;;;1555547;75;675;-61
2023/11/30 04:39:23;;;;;;;;;;;17.90;48.10;;;;;;1558093;75;1939;-61
2023/11/30 04:41:25;;;;;;;;;;;17.80;48.10;;;;;;1542405;76;724;-62
2023/11/30 04:43:27;;;;;;;;;;;17.80;48.10;;;;;;1554442;74;1110;-62
2023/11/30 04:45:29;;;;;;;;;;;17.80;48.10;;;;;;1555739;75;675;-62
2023/11/30 04:47:31;;;;;;;;;;;17.80;48.10;;;;;;1557836;75;724;-63
2023/11/30 04:49:33;;;;;;;;;;;17.80;48.00;;;;;;1558080;75;1465;-61
2023/11/30 04:51:35;;;;;;;;;;;17.90;48.20;;;;;;1536708;76;719;-61
2023/11/30 04:53:36;;;;;;;;;;;17.90;48.20;;;;;;1553223;75;1183;-61
2023/11/30 04:55:38;;;;;;;;;;;17.80;48.00;;;;;;1546163;75;780;-62
2023/11/30 04:57:40;;;;;;;;;;;17.80;48.00;;;;;;1553459;75;768;-62
2023/11/30 04:59:42;;;;;;;;;;;17.90;48.20;;;;;;1557580;75;1902;-61
2023/11/30 05:01:44;;;;;;;;;;;17.80;48.10;;;;;;1553578;75;705;-61
2023/11/30 05:03:46;;;;;;;;;;;17.80;48.00;;;;;;1553334;74;1692;-62
2023/11/30 05:05:48;;;;;;;;;;;17.80;48.10;;;;;;1564003;75;686;-61
2023/11/30 05:07:50;;;;;;;;;;;17.80;48.10;;;;;;1542137;76;729;-61
2023/11/30 05:09:52;;;;;;;;;;;17.80;48.10;;;;;;1551592;75;743;-62
2023/11/30 05:11:54;;;;;;;;;;;17.80;48.10;;;;;;1551578;75;663;-62
2023/11/30 05:13:56;;;;;;;;;;;17.80;48.00;;;;;;1556198;75;1108;-62
2023/11/30 05:15:59;;;;;;;;;;;17.80;48.00;;;;;;1555833;75;665;-63
2023/11/30 05:18:01;;;;;;;;;;;17.80;48.00;;;;;;1531314;76;1491;-62
2023/11/30 05:20:03;;;;;;;;;;;17.80;48.00;;;;;;1559790;75;1921;-63
2023/11/30 05:22:05;;;;;;;;;;;17.80;48.00;;;;;;1557280;75;700;-63
2023/11/30 05:24:07;;;;;;;;;;;17.80;48.00;;;;;;1552657;74;1126;-62
2023/11/30 05:26:09;;;;;;;;;;;17.80;48.10;;;;;;1562931;75;678;-64
2023/11/30 05:28:11;;;;;;;;;;;17.80;48.00;;;;;;1558593;75;775;-62
2023/11/30 05:30:12;;;;;;;;;;;17.80;48.00;;;;;;1557142;75;712;-64
2023/11/30 05:32:14;;;;;;;;;;;17.60;47.90;;;;;;1551862;74;1423;-62
2023/11/30 05:34:16;;;;;;;;;;;17.80;48.00;;;;;;1551377;75;736;-61
2023/11/30 05:36:18;;;;;;;;;;;17.80;47.90;;;;;;1562066;75;757;-61
2023/11/30 05:38:20;;;;;;;;;;;17.80;48.00;;;;;;1560474;75;717;-61
2023/11/30 05:40:22;;;;;;;;;;;17.80;48.00;;;;;;1553222;75;1939;-61
2023/11/30 05:42:24;;;;;;;;;;;17.80;47.90;;;;;;1565239;74;1141;-61
2023/11/30 05:44:26;;;;;;;;;;;17.70;47.90;;;;;;1550527;75;1241;-61
2023/11/30 05:46:27;;;;;;;;;;;17.80;47.90;;;;;;1551521;75;639;-61
2023/11/30 05:48:29;;;;;;;;;;;17.80;47.90;;;;;;1556393;75;801;-61
2023/11/30 05:50:32;;;;;;;;;;;17.80;47.90;;;;;;1536843;76;636;-61
2023/11/30 05:52:35;;;;;;;;;;;17.80;48.00;;;;;;1557902;75;1208;-61
2023/11/30 05:54:37;;;;;;;;;;;17.70;48.00;;;;;;1555149;75;638;-61
2023/11/30 05:56:39;;;;;;;;;;;17.80;48.00;;;;;;1537628;76;709;-61
2023/11/30 05:58:41;;;;;;;;;;;17.80;48.00;;;;;;1561751;75;1342;-61
2023/11/30 06:00:43;;;;;;;;;;;17.70;48.00;;;;;;1557716;75;1940;-61
2023/11/30 06:02:45;;;;;;;;;;;17.80;47.90;;;;;;1537192;76;1135;-62
2023/11/30 06:04:53;;;;;;;;;;;17.80;47.90;;;;;;1561618;75;714;-61
2023/11/30 06:06:55;;;;;;;;;;;17.70;47.90;;;;;;1547196;76;573;-62
2023/11/30 06:08:57;;;;;;;;;;;17.80;48.00;;;;;;1550661;75;698;-61
2023/11/30 06:10:59;;;;;;;;;;;17.70;48.00;;;;;;1542241;76;713;-61
2023/11/30 06:13:00;;;;;;;;;;;17.80;47.90;;;;;;1557436;75;1365;-62
2023/11/30 06:15:03;;;;;;;;;;;17.80;47.90;;;;;;1576812;75;842;-61
2023/11/30 06:17:05;;;;;;;;;;;17.80;47.90;;;;;;1541637;76;762;-62
2023/11/30 06:19:07;;;;;;;;;;;17.80;47.90;;;;;;1555990;75;758;-61
2023/11/30 06:21:09;;;;;;;;;;;17.80;47.90;;;;;;1556637;75;1930;-62
2023/11/30 06:23:11;;;;;;;;;;;17.80;47.90;;;;;;1538175;76;1089;-62
2023/11/30 06:25:13;;;;;;;;;;;17.80;48.00;;;;;;1556310;75;809;-61
2023/11/30 06:27:15;;;;;;;;;;;17.80;48.00;;;;;;1536015;76;1568;-61
2023/11/30 06:29:17;;;;;;;;;;;17.80;48.00;;;;;;1557809;75;770;-62
2023/11/30 06:31:19;;;;;;;;;;;17.90;48.10;;;;;;1534181;76;864;-63
2023/11/30 06:33:21;;;;;;;;;;;17.80;48.00;;;;;;1554419;75;1136;-61
2023/11/30 06:35:23;;;;;;;;;;;17.80;48.00;;;;;;1541117;76;773;-62
2023/11/30 06:37:24;;;;;;;;;;;17.80;48.00;;;;;;1509189;78;662;-61
2023/11/30 06:39:27;;;;;;;;;;;17.80;47.90;;;;;;1562000;75;746;-62
2023/11/30 06:41:29;;;;;;;;;;;17.80;48.00;;;;;;1527940;76;1903;-61
2023/11/30 06:43:30;;;;;;;;;;;17.90;48.10;;;;;;1539794;75;1143;-62
2023/11/30 06:45:32;;;;;;;;;;;17.90;48.10;;;;;;1565300;75;743;-60
2023/11/30 06:47:34;;;;;;;;;;;17.80;48.00;;;;;;1569077;75;696;-62
2023/11/30 06:49:36;;;;;;;;;;;17.40;47.80;;;;;;1541807;76;813;-62
2023/11/30 06:51:38;;;;;;;;;;;17.90;48.10;;;;;;1559703;75;735;-60
2023/11/30 06:53:40;;;;;;;;;;;17.80;48.00;;;;;;1555188;75;1152;-61
2023/11/30 06:55:42;;;;;;;;;;;17.90;48.10;;;;;;1549247;75;1548;-61
2023/11/30 06:57:44;;;;;;;;;;;17.90;48.10;;;;;;1537070;76;792;-61
2023/11/30 06:59:46;;;;;;;;;;;17.90;48.10;;;;;;1553745;75;731;-63
2023/11/30 07:01:48;;;;;;;;;;;17.90;48.10;;;;;;1534678;76;1950;-61
2023/11/30 07:03:50;;;;;;;;;;;17.80;47.90;;;;;;1553604;75;1078;-61
2023/11/30 07:05:52;;;;;;;;;;;17.80;47.90;;;;;;1539485;76;780;-63
2023/11/30 07:07:54;;;;;;;;;;;17.90;48.10;;;;;;1562042;75;731;-62
2023/11/30 07:09:56;;;;;;;;;;;17.90;48.10;;;;;;1554402;75;1411;-63
2023/11/30 07:11:58;;;;;;;;;;;17.90;48.10;;;;;;1532939;76;751;-62
2023/11/30 07:14:00;;;;;;;;;;;17.80;47.90;;;;;;1547027;75;1058;-62
2023/11/30 07:16:02;;;;;;;;;;;17.80;47.90;;;;;;1551135;75;605;-62
2023/11/30 07:18:04;;;;;;;;;;;17.90;48.10;;;;;;1557454;75;654;-61
2023/11/30 07:20:06;;;;;;;;;;;18.30;48.30;;;;;;1537520;76;1932;-62
2023/11/30 07:22:08;;;;;;;;;;;17.90;48.10;;;;;;1557651;75;718;-61
2023/11/30 07:24:10;;;;;;;;;;;17.80;48.00;;;;;;1563741;75;1525;-62
2023/11/30 07:26:13;;;;;;;;;;;17.80;47.90;;;;;;1555095;75;753;-62
2023/11/30 07:28:15;;;;;;;;;;;17.90;48.10;;;;;;1562309;75;718;-62
2023/11/30 07:30:17;;;;;;;;;;;17.90;48.10;;;;;;1551910;75;636;-63
2023/11/30 07:32:19;;;;;;;;;;;17.90;48.10;;;;;;1559710;75;1117;-62
2023/11/30 07:34:20;;;;;;;;;;;17.90;48.10;;;;;;1554599;75;673;-63
2023/11/30 07:36:22;;;;;;;;;;;17.90;48.10;;;;;;1540288;76;834;-62
2023/11/30 07:38:24;;;;;;;;;;;17.90;48.10;;;;;;1559248;75;1451;-61
2023/11/30 07:40:26;;;;;;;;;;;17.90;48.10;;;;;;1555637;75;1929;-61
2023/11/30 07:42:28;;;;;;;;;;;17.90;48.10;;;;;;1543803;75;1133;-61
2023/11/30 07:44:30;;;;;;;;;;;17.90;48.10;;;;;;1551717;75;742;-61
2023/11/30 07:46:32;;;;;;;;;;;17.90;48.10;;;;;;1556695;75;733;-61
2023/11/30 07:48:34;;;;;;;;;;;17.90;48.10;;;;;;1554364;75;639;-61
2023/11/30 07:50:35;;;;;;;;;;;17.90;48.10;;;;;;1564862;75;705;-61
2023/11/30 07:52:37;;;;;;;;;;;17.90;48.10;;;;;;1535938;76;1307;-60
2023/11/30 07:54:39;;;;;;;;;;;17.90;48.10;;;;;;1556377;75;741;-61
2023/11/30 07:56:41;;;;;;;;;;;17.80;47.90;;;;;;1537732;76;705;-61
2023/11/30 07:58:44;;;;;;;;;;;17.90;48.10;;;;;;1551279;75;783;-60
2023/11/30 08:00:46;;;;;;;;;;;17.80;47.90;;;;;;1563504;75;1906;-61
2023/11/30 08:02:47;;;;;;;;;;;17.80;47.90;;;;;;1557758;75;1039;-60
2023/11/30 08:04:49;;;;;;;;;;;17.90;48.10;;;;;;1549684;75;732;-60
2023/11/30 08:06:51;;;;;;;;;;;17.80;47.90;;;;;;1557518;75;1610;-60
2023/11/30 08:08:53;;;;;;;;;;;17.90;48.10;;;;;;1562580;75;677;-63
2023/11/30 08:10:55;;;;;;;;;;;17.80;47.90;;;;;;1543631;76;693;-62
2023/11/30 08:12:57;;;;;;;;;;;17.90;48.00;;;;;;1559690;74;1173;-62
2023/11/30 08:14:59;;;;;;;;;;;17.80;47.90;;;;;;1561186;75;691;-61
2023/11/30 08:17:04;;;;;;;;;;;17.80;47.80;;;;;;1561956;75;734;-61
2023/11/30 08:19:05;;;;;;;;;;;17.80;47.90;;;;;;1566993;75;1694;-61
2023/11/30 08:21:06;;;;;;;;;;;17.80;47.90;;;;;;1551526;75;1903;-61
2023/11/30 08:23:09;;;;;;;;;;;17.80;47.90;;;;;;1557056;75;1102;-60
2023/11/30 08:25:15;;;;;;;;;;;17.80;47.90;;;;;;1536299;76;770;-61
2023/11/30 08:27:17;;;;;;;;;;;17.80;47.90;;;;;;1558911;75;1606;-61
2023/11/30 08:29:18;;;;;;;;;;;17.90;48.10;;;;;;1557084;75;721;-61
2023/11/30 08:31:21;;;;;;;;;;;17.80;47.90;;;;;;1528112;76;678;-61
2023/11/30 08:33:24;;;;;;;;;;;17.90;48.10;;;;;;1548288;75;1554;-61
2023/11/30 08:35:27;;;;;;;;;;;17.90;48.10;;;;;;1548785;75;750;-62
2023/11/30 08:37:29;;;;;;;;;;;17.80;47.90;;;;;;1561890;75;679;-61
2023/11/30 08:39:31;;;;;;;;;;;17.50;47.80;;;;;;1560817;75;602;-61
2023/11/30 08:41:33;;;;;;;;;;;17.80;47.90;;;;;;1532277;76;1931;-62
2023/11/30 08:43:35;;;;;;;;;;;17.80;48.00;;;;;;1555570;75;1143;-62
2023/11/30 08:45:36;;;;;;;;;;;17.90;48.10;;;;;;1558481;75;642;-61
2023/11/30 08:47:39;;;;;;;;;;;17.80;47.90;;;;;;1537436;76;1552;-61
2023/11/30 08:49:40;;;;;;;;;;;17.80;47.90;;;;;;1556425;75;760;-62
2023/11/30 08:51:43;;;;;;;;;;;17.80;48.00;;;;;;1536299;76;781;-61
2023/11/30 08:53:45;;;;;;;;;;;17.80;47.90;;;;;;1553002;74;1100;-61
2023/11/30 08:55:47;;;;;;;;;;;17.80;47.90;;;;;;1560702;75;659;-61
2023/11/30 08:57:49;;;;;;;;;;;17.80;47.90;;;;;;1559689;75;704;-61
2023/11/30 08:59:51;;;;;;;;;;;17.80;47.90;;;;;;1532791;76;758;-61
2023/11/30 09:01:54;;;;;;;;;;;17.80;47.90;;;;;;1552712;75;1944;-61
2023/11/30 09:03:57;;;;;;;;;;;17.80;47.90;;;;;;1556681;75;1160;-61
2023/11/30 09:05:59;;;;;;;;;;;17.80;47.90;;;;;;1552001;75;1986;-62
2023/11/30 09:08:01;;;;;;;;;;;17.80;47.90;;;;;;1553301;75;747;-62
2023/11/30 09:10:04;;;;;;;;;;;17.80;48.00;;;;;;1568062;75;728;-62
2023/11/30 09:12:06;;;;;;;;;;;17.80;47.90;;;;;;1556956;75;748;-61
2023/11/30 09:14:08;;;;;;;;;;;17.80;47.90;;;;;;1555730;75;1142;-62
2023/11/30 09:16:10;;;;;;;;;;;17.70;47.90;;;;;;1553395;75;1314;-61
2023/11/30 09:18:12;;;;;;;;;;;17.70;47.90;;;;;;1562324;75;817;-61
2023/11/30 09:20:14;;;;;;;;;;;17.80;48.00;;;;;;1540538;76;770;-61
2023/11/30 09:22:17;;;;;;;;;;;17.80;48.00;;;;;;1553305;75;1955;-61
2023/11/30 09:24:21;;;;;;;;;;;17.80;48.00;;;;;;1553357;75;675;-62
2023/11/30 09:26:22;;;;;;;;;;;17.80;48.00;;;;;;1549349;75;910;-62
2023/11/30 09:28:24;;;;;;;;;;;17.70;47.90;;;;;;1552750;75;672;-61
2023/11/30 09:30:26;;;;;;;;;;;17.80;48.00;;;;;;1556263;75;1585;-62
2023/11/30 09:32:28;;;;;;;;;;;17.80;48.10;;;;;;1529379;75;1130;-61
2023/11/30 09:34:30;;;;;;;;;;;17.80;48.00;;;;;;1551248;75;750;-61
2023/11/30 09:36:32;;;;;;;;;;;17.80;48.00;;;;;;1535616;76;756;-61
2023/11/30 09:38:34;;;;;;;;;;;17.80;48.00;;;;;;1556544;75;754;-61
2023/11/30 09:40:36;;;;;;;;;;;17.80;48.00;;;;;;1558544;75;816;-62
2023/11/30 09:42:37;;;;;;;;;;;17.80;48.00;;;;;;1555307;74;1944;-62
2023/11/30 09:44:39;;;;;;;;;;;17.80;48.10;;;;;;1551578;75;1359;-61
2023/11/30 09:46:42;;;;;;;;;;;17.80;48.10;;;;;;1560193;75;775;-61
2023/11/30 09:48:44;;;;;;;;;;;17.80;48.00;;;;;;1561423;75;811;-61
2023/11/30 09:50:46;;;;;;;;;;;17.80;48.10;;;;;;1558342;75;631;-61
2023/11/30 09:52:48;;;;;;;;;;;17.80;48.00;;;;;;1546427;75;1171;-61
2023/11/30 09:54:54;;;;;;;;;;;17.80;48.00;;;;;;1556901;75;684;-60
2023/11/30 09:56:53;;;;;;;;;;;17.90;48.10;;;;;;1554005;75;1698;-61
2023/11/30 09:58:55;;;;;;;;;;;17.80;48.00;;;;;;1554525;75;1442;-62
2023/11/30 10:00:57;;;;;;;;;;;17.90;48.10;;;;;;1558205;75;1085;-61
2023/11/30 10:02:59;;;;;;;;;;;17.90;48.10;;;;;;1553020;74;1931;-63
2023/11/30 10:05:01;;;;;;;;;;;17.90;48.10;;;;;;1555963;75;798;-61
2023/11/30 10:07:03;;;;;;;;;;;17.90;48.10;;;;;;1564566;75;736;-62
2023/11/30 10:09:05;;;;;;;;;;;17.90;48.10;;;;;;1550415;75;726;-62
2023/11/30 10:11:08;;;;;;;;;;;17.90;48.10;;;;;;1538969;75;1290;-62
2023/11/30 10:13:10;;;;;;;;;;;17.90;48.10;;;;;;1550182;75;1568;-63
2023/11/30 10:15:12;;;;;;;;;;;18.00;48.10;;;;;;1549777;75;809;-61
2023/11/30 10:17:14;;;;;;;;;;;17.90;48.10;;;;;;1553376;75;733;-61
2023/11/30 10:19:16;;;;;;;;;;;18.00;48.10;;;;;;1562204;75;820;-61
2023/11/30 10:21:18;;;;;;;;;;;17.90;48.10;;;;;;1558370;75;1907;-61
2023/11/30 10:23:21;;;;;;;;;;;17.90;48.10;;;;;;1558758;74;1146;-61
2023/11/30 10:25:24;;;;;;;;;;;17.90;48.10;;;;;;1554210;75;966;-61
2023/11/30 10:27:26;;;;;;;;;;;17.90;48.00;;;;;;1550260;75;1285;-61
2023/11/30 10:29:30;;;;;;;;;;;18.00;48.10;;;;;;1534685;76;730;-59
2023/11/30 10:31:35;;;;;;;;;;;18.00;48.10;;;;;;1560422;75;1755;-59
2023/11/30 10:33:37;;;;;;;;;;;17.90;48.10;;;;;;1552259;75;1466;-59
2023/11/30 10:35:39;;;;;;;;;;;18.00;48.10;;;;;;1539063;76;728;-59
2023/11/30 10:37:42;;;;;;;;;;;18.00;48.10;;;;;;1562501;75;741;-60
2023/11/30 10:39:44;;;;;;;;;;;17.90;48.10;;;;;;1537190;76;1555;-60
2023/11/30 10:41:52;;;;;;;;;;;18.00;48.10;;;;;;1554601;75;1919;-58
2023/11/30 10:43:55;;;;;;;;;;;18.00;48.10;;;;;;1539072;75;1113;-60
2023/11/30 10:45:57;;;;;;;;;;;17.90;48.10;;;;;;1559463;75;707;-58
2023/11/30 10:47:59;;;;;;;;;;;17.90;48.10;;;;;;1562241;75;759;-60
2023/11/30 10:50:03;;;;;;;;;;;18.00;48.10;;;;;;1555893;75;793;-59
2023/11/30 10:52:05;;;;;;;;;;;17.90;48.10;;;;;;1536857;76;738;-59
2023/11/30 10:54:11;;;;;;;;;;;17.90;48.10;;;;;;1560578;75;1534;-59
2023/11/30 10:56:13;;;;;;;;;;;18.00;48.10;;;;;;1530473;76;1767;-60
2023/11/30 10:58:17;;;;;;;;;;;17.90;48.10;;;;;;1560446;75;785;-60
2023/11/30 11:00:22;;;;;;;;;;;18.00;48.10;;;;;;1554272;75;1355;-59
2023/11/30 11:02:22;;;;;;;;;;;17.90;48.10;;;;;;1552019;75;1931;-60
2023/11/30 11:04:24;;;;;;;;;;;18.00;48.10;;;;;;1555710;75;686;-59
2023/11/30 11:06:26;;;;;;;;;;;18.00;48.10;;;;;;1557364;75;825;-61
2023/11/30 11:08:29;;;;;;;;;;;17.90;48.10;;;;;;1555360;75;1516;-60
2023/11/30 11:10:32;;;;;;;;;;;17.90;48.10;;;;;;1536871;76;744;-58
2023/11/30 11:12:37;;;;;;;;;;;17.90;48.10;;;;;;1556930;74;1871;-58
2023/11/30 11:14:38;;;;;;;;;;;17.90;48.10;;;;;;1557074;74;1527;-58
2023/11/30 11:16:44;;;;;;;;;;;18.00;48.10;;;;;;1556999;75;714;-59
2023/11/30 11:18:46;;;;;;;;;;;17.90;48.10;;;;;;1536170;76;677;-59
2023/11/30 11:20:48;;;;;;;;;;;17.90;48.10;;;;;;1556078;75;797;-59
2023/11/30 11:22:56;;;;;;;;;;;18.00;48.10;;;;;;1553105;75;1920;-61
2023/11/30 11:25:00;;;;;;;;;;;17.90;48.10;;;;;;1563274;75;696;-60
2023/11/30 11:27:02;;;;;;;;;;;17.90;48.10;;;;;;1544914;75;1184;-60
2023/11/30 11:29:04;;;;;;;;;;;17.90;48.10;;;;;;1565314;75;729;-60
2023/11/30 11:31:06;;;;;;;;;;;17.90;48.10;;;;;;1536839;76;715;-59
2023/11/30 11:33:08;;;;;;;;;;;18.00;48.20;;;;;;1554363;75;1171;-60
2023/11/30 11:35:13;;;;;;;;;;;17.80;48.00;;;;;;1556725;75;734;-59
2023/11/30 11:37:14;;;;;;;;;;;17.90;48.20;;;;;;1563300;75;1310;-60
2023/11/30 11:39:16;;;;;;;;;;;17.90;48.20;;;;;;1565940;75;790;-60
2023/11/30 11:41:18;;;;;;;;;;;17.90;48.20;;;;;;1536079;76;767;-59
2023/11/30 11:43:20;;;;;;;;;;;17.90;48.10;;;;;;1557762;74;1943;-58
2023/11/30 11:45:22;;;;;;;;;;;17.80;48.00;;;;;;1555565;75;850;-60
2023/11/30 11:47:24;;;;;;;;;;;17.90;48.10;;;;;;1554426;75;682;-60
2023/11/30 11:49:26;;;;;;;;;;;17.90;48.20;;;;;;1555483;75;748;-59
2023/11/30 11:51:28;;;;;;;;;;;17.80;48.10;;;;;;1556362;75;1388;-59
2023/11/30 11:53:31;;;;;;;;;;;17.90;48.10;;;;;;1541821;76;1135;-60
2023/11/30 11:55:33;;;;;;;;;;;17.80;48.10;;;;;;1562821;75;865;-57
2023/11/30 11:57:39;;;;;;;;;;;17.90;48.20;;;;;;1552153;75;712;-59
2023/11/30 11:59:42;;;;;;;;;;;17.90;48.20;;;;;;1537333;76;762;-58
2023/11/30 12:01:44;;;;;;;;;;;17.80;48.10;;;;;;1553133;75;726;-59
2023/11/30 12:03:47;;;;;;;;;;;17.90;48.20;;;;;;1538194;75;1121;-57
2023/11/30 12:05:50;;;;;;;;;;;17.90;48.20;;;;;;1565266;75;1417;-59
2023/11/30 12:07:53;;;;;;;;;;;17.90;48.20;;;;;;1537128;76;725;-60